Terminal Aerodrome Forecast
Issued by NWS

Home | Current Version | Previous Version | Text Only | Print | Product List | Glossary On
Versions: 1 2 3 4 5 6 7 8 9 10 11 12 13 14 15 16 17 18 19 20 21 22
000
FTUS43 KICT 182327
TAFHUT
TAF
KHUT 182327Z 1900/1924 14015G23KT P6SM FEW200
     FM190400 13012G18KT P6SM VCTS BKN080CB OVC250CB
      TEMPO 1905/1909 VRB30G40KT 2SM TSRA SCT015 OVC040CB
     FM191000 12006KT P6SM BKN070
     FM191400 12011KT P6SM SCT060
     FM191900 19012G18KT P6SM SCT050=

USA.gov is the U.S. government's official web portal to all federal, state and local government web resources and services.